Time;durP1;ratioP1;P1;durP2;ratioP2;P2;SDS_P1;SDS_P2;PMS_P1;PMS_P2;Temp;Humidity;BMP_temperature;BMP_pressure;BME280_temperature;BME280_humidity;BME280_pressure;Samples;Min_cycle;Max_cycle;Signal;HPM_P1;HPM_P2
2022/10/13 00:00:59;;;;;;;5.5;4.4;;;;;;;;;;;;;
2022/10/13 00:03:24;;;;;;;7.8;4.9;;;;;;;;;;;;;
2022/10/13 00:05:50;;;;;;;7.9;4.7;;;;;;;;;;;;;
2022/10/13 00:08:17;;;;;;;12.1;4.8;;;;;;;;;;;;;
2022/10/13 00:10:41;;;;;;;6.9;4.4;;;;;;;;;;;;;
2022/10/13 00:13:06;;;;;;;6.2;4.2;;;;;;;;;;;;;
2022/10/13 00:15:31;;;;;;;5.7;4.4;;;;;;;;;;;;;
2022/10/13 00:17:56;;;;;;;6.6;4.4;;;;;;;;;;;;;
2022/10/13 00:20:21;;;;;;;6.2;4.1;;;;;;;;;;;;;
2022/10/13 00:22:48;;;;;;;8.1;4.5;;;;;;;;;;;;;
2022/10/13 00:25:13;;;;;;;6;4.2;;;;;;;;;;;;;
2022/10/13 00:27:39;;;;;;;10.1;4.8;;;;;;;;;;;;;
2022/10/13 00:30:04;;;;;;;6.6;4.2;;;;;;;;;;;;;
2022/10/13 00:32:30;;;;;;;7.9;5.1;;;;;;;;;;;;;
2022/10/13 00:34:56;;;;;;;9;4.6;;;;;;;;;;;;;
2022/10/13 00:37:20;;;;;;;8.5;4.9;;;;;;;;;;;;;
2022/10/13 00:39:45;;;;;;;7.5;4.6;;;;;;;;;;;;;
2022/10/13 00:42:10;;;;;;;6.7;4.4;;;;;;;;;;;;;
2022/10/13 00:44:35;;;;;;;6.1;4.3;;;;;;;;;;;;;
2022/10/13 00:47:00;;;;;;;8.6;4.4;;;;;;;;;;;;;
2022/10/13 00:49:25;;;;;;;8.2;4.5;;;;;;;;;;;;;
2022/10/13 00:51:51;;;;;;;7.6;4.4;;;;;;;;;;;;;
2022/10/13 00:54:16;;;;;;;5.4;4.1;;;;;;;;;;;;;
2022/10/13 00:56:42;;;;;;;9;4.5;;;;;;;;;;;;;
2022/10/13 00:59:07;;;;;;;6.7;4.2;;;;;;;;;;;;;
2022/10/13 01:01:32;;;;;;;6.8;4;;;;;;;;;;;;;
2022/10/13 01:03:58;;;;;;;6.5;4.2;;;;;;;;;;;;;
2022/10/13 01:06:23;;;;;;;7.7;4.5;;;;;;;;;;;;;
2022/10/13 01:08:50;;;;;;;5.5;4.3;;;;;;;;;;;;;
2022/10/13 01:11:15;;;;;;;7.7;4.2;;;;;;;;;;;;;
2022/10/13 01:13:40;;;;;;;8.5;4.2;;;;;;;;;;;;;
2022/10/13 01:16:05;;;;;;;9.5;5;;;;;;;;;;;;;
2022/10/13 01:18:30;;;;;;;7.4;4.4;;;;;;;;;;;;;
2022/10/13 01:20:55;;;;;;;9;5.3;;;;;;;;;;;;;
2022/10/13 01:23:21;;;;;;;6;4.1;;;;;;;;;;;;;
2022/10/13 01:25:47;;;;;;;9.5;4.5;;;;;;;;;;;;;
2022/10/13 01:28:12;;;;;;;7.7;4.4;;;;;;;;;;;;;
2022/10/13 01:30:37;;;;;;;7.7;4.4;;;;;;;;;;;;;
2022/10/13 01:33:02;;;;;;;6.9;4.6;;;;;;;;;;;;;
2022/10/13 01:35:27;;;;;;;6.1;4.2;;;;;;;;;;;;;
2022/10/13 01:37:54;;;;;;;6.6;4.3;;;;;;;;;;;;;
2022/10/13 01:40:28;;;;;;;5.6;4;;;;;;;;;;;;;
2022/10/13 01:42:53;;;;;;;10;4.2;;;;;;;;;;;;;
2022/10/13 01:45:35;;;;;;;7.2;4.6;;;;;;;;;;;;;
2022/10/13 01:48:00;;;;;;;6.3;4;;;;;;;;;;;;;
2022/10/13 01:50:28;;;;;;;9.1;4.8;;;;;;;;;;;;;
2022/10/13 01:52:54;;;;;;;8.9;4.1;;;;;;;;;;;;;
2022/10/13 01:55:24;;;;;;;7;4.4;;;;;;;;;;;;;
2022/10/13 01:57:51;;;;;;;7.5;4.9;;;;;;;;;;;;;
2022/10/13 02:00:16;;;;;;;6.8;4.2;;;;;;;;;;;;;
2022/10/13 02:02:41;;;;;;;5.7;4.2;;;;;;;;;;;;;
2022/10/13 02:05:11;;;;;;;8.8;4.6;;;;;;;;;;;;;
2022/10/13 02:07:36;;;;;;;7;4.2;;;;;;;;;;;;;
2022/10/13 02:10:01;;;;;;;7;4.3;;;;;;;;;;;;;
2022/10/13 02:12:26;;;;;;;6.6;4.8;;;;;;;;;;;;;
2022/10/13 02:14:51;;;;;;;6.9;4.5;;;;;;;;;;;;;
2022/10/13 02:17:16;;;;;;;6.4;4.4;;;;;;;;;;;;;
2022/10/13 02:19:41;;;;;;;7.1;4;;;;;;;;;;;;;
2022/10/13 02:22:06;;;;;;;6.7;4.4;;;;;;;;;;;;;
2022/10/13 02:24:33;;;;;;;5.8;4;;;;;;;;;;;;;
2022/10/13 02:26:58;;;;;;;6.3;4.1;;;;;;;;;;;;;
2022/10/13 02:29:23;;;;;;;6;4.2;;;;;;;;;;;;;
2022/10/13 02:32:13;;;;;;;6.1;4.4;;;;;;;;;;;;;
2022/10/13 02:34:38;;;;;;;9.1;5.4;;;;;;;;;;;;;
2022/10/13 02:37:03;;;;;;;8.7;4.2;;;;;;;;;;;;;
2022/10/13 02:39:30;;;;;;;7.9;4.5;;;;;;;;;;;;;
2022/10/13 02:41:55;;;;;;;7.1;4.4;;;;;;;;;;;;;
2022/10/13 02:44:23;;;;;;;7.9;4.6;;;;;;;;;;;;;
2022/10/13 02:46:48;;;;;;;12.2;5.5;;;;;;;;;;;;;
2022/10/13 02:49:13;;;;;;;12.3;5.5;;;;;;;;;;;;;
2022/10/13 02:51:38;;;;;;;8.8;5;;;;;;;;;;;;;
2022/10/13 02:54:03;;;;;;;13.9;6.5;;;;;;;;;;;;;
2022/10/13 02:56:28;;;;;;;13.2;6.2;;;;;;;;;;;;;
2022/10/13 02:58:54;;;;;;;10.8;6.1;;;;;;;;;;;;;
2022/10/13 03:01:19;;;;;;;9.7;6.3;;;;;;;;;;;;;
2022/10/13 03:03:45;;;;;;;13.7;7.7;;;;;;;;;;;;;
2022/10/13 03:06:10;;;;;;;11.2;6.2;;;;;;;;;;;;;
2022/10/13 03:08:37;;;;;;;9.6;5.2;;;;;;;;;;;;;
2022/10/13 03:11:02;;;;;;;8.2;5.3;;;;;;;;;;;;;
2022/10/13 03:13:28;;;;;;;7.6;5.2;;;;;;;;;;;;;
2022/10/13 03:15:53;;;;;;;8.9;5;;;;;;;;;;;;;
2022/10/13 03:18:20;;;;;;;9.5;5.3;;;;;;;;;;;;;
2022/10/13 03:20:45;;;;;;;7.6;4.8;;;;;;;;;;;;;
2022/10/13 03:23:10;;;;;;;9.9;5;;;;;;;;;;;;;
2022/10/13 03:25:35;;;;;;;8;5;;;;;;;;;;;;;
2022/10/13 03:28:01;;;;;;;8.5;4.8;;;;;;;;;;;;;
2022/10/13 03:30:33;;;;;;;8.1;4.2;;;;;;;;;;;;;
2022/10/13 03:32:52;;;;;;;6.4;4.9;;;;;;;;;;;;;
2022/10/13 03:35:17;;;;;;;6.1;4.5;;;;;;;;;;;;;
2022/10/13 03:37:42;;;;;;;8.2;5;;;;;;;;;;;;;
2022/10/13 03:40:07;;;;;;;11.9;5.6;;;;;;;;;;;;;
2022/10/13 03:42:33;;;;;;;10.1;5.6;;;;;;;;;;;;;
2022/10/13 03:44:58;;;;;;;9.1;4.8;;;;;;;;;;;;;
2022/10/13 03:47:26;;;;;;;10;4.8;;;;;;;;;;;;;
2022/10/13 03:49:53;;;;;;;8.8;5;;;;;;;;;;;;;
2022/10/13 03:52:16;;;;;;;9.4;5.4;;;;;;;;;;;;;
2022/10/13 03:54:41;;;;;;;9.7;5;;;;;;;;;;;;;
2022/10/13 03:57:06;;;;;;;8.2;4.8;;;;;;;;;;;;;
2022/10/13 03:59:32;;;;;;;7.6;4.7;;;;;;;;;;;;;
2022/10/13 04:02:35;;;;;;;11.2;4.5;;;;;;;9.81;90.57227;942.5028;;;;
2022/10/13 04:05:05;;;;;;;8;4.8;;;;;;;9.49;92.26953;942.5134;;;;
2022/10/13 04:07:30;;;;;;;7.8;4.7;;;;;;;9.28;93.88965;942.563;;;;
2022/10/13 04:13:05;;;;;;;7.4;4.7;;;;;;;9.54;92.72559;942.5343;;;;
2022/10/13 04:15:31;;;;;;;8.5;5.3;;;;;;;9.56;92.49023;942.5244;;;;
2022/10/13 04:18:01;;;;;;;6.9;4.8;;;;;;;9.63;92.01563;942.5245;;;;
2022/10/13 04:20:31;;;;;;;7.9;4.9;;;;;;;9.64;91.5957;942.4953;;;;
2022/10/13 04:23:00;;;;;;;8.6;4.3;;;;;;;9.53;91.68652;942.4697;;;;
2022/10/13 04:25:29;;;;;;;8;4;;;;;;;9.53;91.88086;942.4626;;;;
2022/10/13 04:27:56;;;;;;;6.7;4.4;;;;;;;9.43;92.16699;942.4462;;;;
2022/10/13 04:30:21;;;;;;;8.9;4.6;;;;;;;9.29;92.6709;942.497;;;;
2022/10/13 04:32:52;;;;;;;7.5;4.6;;;;;;;9.04;94.03906;942.4827;;;;
2022/10/13 04:35:24;;;;;;;9.3;4.7;;;;;;;8.91;95.30859;942.5097;;;;
2022/10/13 04:37:50;;;;;;;10.3;4.8;;;;;;;8.89;95.88477;942.4649;;;;
2022/10/13 04:40:18;;;;;;;7.8;4.8;;;;;;;9;95.41016;942.4769;;;;
2022/10/13 04:45:41;;;;;;;8.5;5;;;;;;;9.02;95.25488;942.4116;;;;
2022/10/13 04:48:09;;;;;;;6.4;4.5;;;;;;;9.1;95.2041;942.4785;;;;
2022/10/13 04:50:34;;;;;;;9.9;4.7;;;;;;;9.24;94.13965;942.4856;;;;
2022/10/13 04:52:59;;;;;;;7.8;4.4;;;;;;;9.35;93.27734;942.3728;;;;
2022/10/13 04:55:30;;;;;;;9.1;5.8;;;;;;;9.35;92.47754;942.4243;;;;
2022/10/13 04:57:59;;;;;;;6.5;4.3;;;;;;;9.36;92.27637;942.4468;;;;
2022/10/13 05:00:24;;;;;;;8;4.7;;;;;;;9.14;93.20703;942.4395;;;;
2022/10/13 05:02:55;;;;;;;12.6;5.5;;;;;;;8.93;94.82324;942.4006;;;;
2022/10/13 05:05:21;;;;;;;8.1;4.5;;;;;;;8.91;95.35156;942.3945;;;;
2022/10/13 05:07:46;;;;;;;8.6;4.8;;;;;;;9.02;95.03809;942.4252;;;;
2022/10/13 05:10:16;;;;;;;8.7;4.2;;;;;;;9.1;94.39453;942.4553;;;;
2022/10/13 05:12:41;;;;;;;8.2;5.1;;;;;;;9.18;93.91113;942.3674;;;;
2022/10/13 05:15:06;;;;;;;9.9;4.5;;;;;;;9.26;93.51953;942.4353;;;;
2022/10/13 05:17:35;;;;;;;9.1;4.3;;;;;;;9.33;93.15918;942.4185;;;;
2022/10/13 05:20:07;;;;;;;9.4;5;;;;;;;9.35;92.93359;942.4783;;;;
2022/10/13 05:22:35;;;;;;;8.4;4.8;;;;;;;9.32;93.04297;942.4373;;;;
2022/10/13 05:25:00;;;;;;;14.4;7.4;;;;;;;9.17;94.01172;942.5101;;;;
2022/10/13 05:27:29;;;;;;;10.9;6.1;;;;;;;9.29;93.71875;942.6273;;;;
2022/10/13 05:30:01;;;;;;;10.9;6;;;;;;;9.35;92.86719;942.6183;;;;
2022/10/13 05:40:10;;;;;;;10.8;5.9;;;;;;;9.25;91.17188;942.5606;;;;
2022/10/13 05:42:39;;;;;;;8.4;5.1;;;;;;;9.29;91.50977;942.683;;;;
2022/10/13 05:45:08;;;;;;;8.6;5.3;;;;;;;9.31;91.12891;942.6835;;;;
2022/10/13 05:47:33;;;;;;;7.9;4.6;;;;;;;9.14;92.70801;942.6629;;;;
2022/10/13 05:50:01;;;;;;;7;4.7;;;;;;;9.21;91.61816;942.6428;;;;
2022/10/13 05:52:26;;;;;;;11;4.6;;;;;;;9.15;90.67285;942.6931;;;;
2022/10/13 05:54:52;;;;;;;9.2;4.2;;;;;;;9.1;90.68457;942.6794;;;;
2022/10/13 05:57:18;;;;;;;8.1;4.8;;;;;;;8.97;92.19336;942.7389;;;;
2022/10/13 05:59:42;;;;;;;7.8;4.9;;;;;;;8.88;92.9248;942.7505;;;;
2022/10/13 06:02:08;;;;;;;8.6;5.4;;;;;;;8.99;92.34766;942.7658;;;;
2022/10/13 06:04:33;;;;;;;8.5;5.2;;;;;;;9.05;91.5166;942.7316;;;;
2022/10/13 06:07:04;;;;;;;14.4;6.9;;;;;;;9.08;93.28613;942.6861;;;;
2022/10/13 06:09:36;;;;;;;9.3;6.2;;;;;;;9.41;96.58203;942.7523;;;;
2022/10/13 06:12:03;;;;;;;9.8;5;;;;;;;9.69;93.7959;942.6458;;;;
2022/10/13 06:14:28;;;;;;;7.6;5;;;;;;;9.87;91.91992;942.6788;;;;
2022/10/13 06:16:53;;;;;;;7.4;4.9;;;;;;;10.04;90.75684;942.6512;;;;
2022/10/13 06:19:19;;;;;;;9.7;4.8;;;;;;;10.29;89.28027;942.7225;;;;
2022/10/13 06:22:48;;;;;;;6.6;4.1;;;;;;;10.35;89.56738;942.7075;;;;
2022/10/13 06:25:12;;;;;;;7.6;4.5;;;;;;;10.83;88.41016;942.7497;;;;
2022/10/13 06:27:39;;;;;;;7.6;3.9;;;;;;;10.77;87.73438;942.7325;;;;
2022/10/13 06:30:04;;;;;;;6.6;4.2;;;;;;;10.69;88.89453;942.6795;;;;
2022/10/13 06:32:32;;;;;;;8.1;3.8;;;;;;;10.87;88.60059;942.7773;;;;
2022/10/13 06:34:57;;;;;;;10.1;4;;;;;;;10.76;88.08691;942.7985;;;;
2022/10/13 06:37:25;;;;;;;6.9;3.8;;;;;;;10.64;88.45117;942.8094;;;;
2022/10/13 06:39:50;;;;;;;10.8;4.4;;;;;;;10.89;87.37012;942.7115;;;;
2022/10/13 06:42:19;;;;;;;10;4.5;;;;;;;10.75;88.19922;942.8159;;;;
2022/10/13 06:44:49;;;;;;;10.7;5.4;;;;;;;10.87;88.68066;942.7304;;;;
2022/10/13 06:47:15;;;;;;;7.1;4.9;;;;;;;11.07;87.97949;942.7823;;;;
2022/10/13 06:49:43;;;;;;;7.2;4.8;;;;;;;11.12;87.39453;942.8078;;;;
2022/10/13 06:52:13;;;;;;;9;4.7;;;;;;;11.16;87.96387;942.7828;;;;
2022/10/13 06:54:40;;;;;;;9.6;4.7;;;;;;;10.92;88.46289;942.7551;;;;
2022/10/13 06:57:05;;;;;;;6.4;4;;;;;;;11.13;88.00195;942.7592;;;;
2022/10/13 06:59:34;;;;;;;8.2;4.3;;;;;;;11.28;87.38184;942.7553;;;;
2022/10/13 07:02:01;;;;;;;8.6;4.3;;;;;;;11.53;86.33203;942.7517;;;;
2022/10/13 07:04:29;;;;;;;6.9;3.6;;;;;;;11.86;85.19629;942.7103;;;;
2022/10/13 07:06:54;;;;;;;5.9;3.9;;;;;;;12.23;84.16797;942.647;;;;
2022/10/13 07:09:23;;;;;;;4.2;3.4;;;;;;;12.56;82.29395;942.6273;;;;
2022/10/13 07:11:48;;;;;;;6.6;3.7;;;;;;;12.82;80.49609;942.6188;;;;
2022/10/13 07:14:16;;;;;;;6;4.3;;;;;;;13.08;81.49609;942.5315;;;;
2022/10/13 07:16:44;;;;;;;6.3;3.5;;;;;;;13.35;79.17969;942.4529;;;;
2022/10/13 07:19:10;;;;;;;4.4;3.2;;;;;;;13.59;78.81934;942.488;;;;
2022/10/13 07:21:37;;;;;;;4.1;3.4;;;;;;;13.69;77.44727;942.4791;;;;
2022/10/13 07:24:02;;;;;;;6.2;3.8;;;;;;;13.51;76.34668;942.5036;;;;
2022/10/13 07:26:27;;;;;;;9.9;5.6;;;;;;;13.37;76.29785;942.501;;;;
2022/10/13 07:28:53;;;;;;;8.3;4.8;;;;;;;13.21;76.70801;942.5114;;;;
2022/10/13 07:31:18;;;;;;;7.5;5.2;;;;;;;13.08;77.28125;942.4283;;;;
2022/10/13 07:33:45;;;;;;;6.9;4.6;;;;;;;13.02;78.70703;942.4095;;;;
2022/10/13 07:36:10;;;;;;;9.1;3.9;;;;;;;13.28;77.39648;942.3245;;;;
2022/10/13 07:38:36;;;;;;;8.5;4.1;;;;;;;13.07;77.3252;942.3787;;;;
2022/10/13 07:41:02;;;;;;;6;4.3;;;;;;;13.02;78.85645;942.3287;;;;
2022/10/13 07:43:30;;;;;;;7.5;3.5;;;;;;;13.7;76.97656;942.2287;;;;
2022/10/13 07:45:55;;;;;;;6.4;3.7;;;;;;;13.92;74.89844;942.2297;;;;
2022/10/13 07:48:22;;;;;;;8.6;3.8;;;;;;;14.2;73.91016;942.1394;;;;
2022/10/13 07:50:47;;;;;;;10.3;4.2;;;;;;;14.13;73.49512;942.0903;;;;
2022/10/13 07:53:14;;;;;;;6.5;3.2;;;;;;;14.72;72.61621;942.1192;;;;
2022/10/13 07:55:39;;;;;;;7.5;3.3;;;;;;;14.58;71.63574;942.1294;;;;
2022/10/13 07:58:07;;;;;;;5.7;3.4;;;;;;;14.14;73.32422;942.14;;;;
2022/10/13 08:00:32;;;;;;;5.3;3.5;;;;;;;13.99;74.75;942.1266;;;;
2022/10/13 08:03:02;;;;;;;7.9;3.5;;;;;;;14.42;72.86621;942.0776;;;;
2022/10/13 08:05:27;;;;;;;6.8;3.5;;;;;;;15.21;70.91992;942.0237;;;;
2022/10/13 08:07:57;;;;;;;5.1;3.1;;;;;;;15.18;69.72559;941.9805;;;;
2022/10/13 08:10:22;;;;;;;5.6;3.4;;;;;;;15.64;68.80566;941.9392;;;;
2022/10/13 08:12:50;;;;;;;5.6;3;;;;;;;16.18;66.41699;941.8566;;;;
2022/10/13 08:15:21;;;;;;;6.7;3.2;;;;;;;16.64;63.66113;941.8936;;;;
2022/10/13 08:17:46;;;;;;;5.9;2.9;;;;;;;17.12;62.55859;941.7542;;;;
2022/10/13 08:20:50;;;;;;;6;2.8;;;;;;;17.36;61.64258;941.7352;;;;
2022/10/13 08:23:15;;;;;;;4.9;2.6;;;;;;;17.75;60.44336;941.7136;;;;
2022/10/13 08:25:42;;;;;;;6.3;2.9;;;;;;;19.17;56.83008;941.6312;;;;
2022/10/13 08:28:07;;;;;;;4.6;2.4;;;;;;;20.72;53.4541;941.6563;;;;
2022/10/13 08:30:33;;;;;;;3.6;2.4;;;;;;;21.41;49.10059;941.5894;;;;
2022/10/13 08:32:58;;;;;;;7.3;2.4;;;;;;;21;49.65234;941.5962;;;;
2022/10/13 08:35:27;;;;;;;3.7;2.3;;;;;;;20.83;51.39746;941.5761;;;;
2022/10/13 08:37:52;;;;;;;3.4;2.4;;;;;;;20.61;51.46484;941.5428;;;;
2022/10/13 08:40:24;;;;;;;3.5;2.4;;;;;;;20.24;51.09668;941.4861;;;;
2022/10/13 08:43:19;;;;;;;3.6;2.5;;;;;;;19.54;53.45215;941.4788;;;;
2022/10/13 08:45:45;;;;;;;6.2;2.7;;;;;;;19.54;54.36133;941.4813;;;;
2022/10/13 08:48:10;;;;;;;5.1;2.5;;;;;;;19.88;53.3877;941.5346;;;;
2022/10/13 08:50:35;;;;;;;3.9;2.3;;;;;;;20.34;52.91797;941.5324;;;;
2022/10/13 08:53:00;;;;;;;4.8;2.4;;;;;;;19.71;53.04102;941.562;;;;
2022/10/13 08:55:25;;;;;;;2.7;2.2;;;;;;;19.62;53.78711;941.5394;;;;
2022/10/13 08:57:50;;;;;;;3.9;2.4;;;;;;;19.31;54.6582;941.5369;;;;
2022/10/13 09:00:15;;;;;;;6.4;2.7;;;;;;;19.1;56.13379;941.5284;;;;
2022/10/13 09:03:19;;;;;;;5.7;2.6;;;;;;;18.58;56.84766;941.5553;;;;
2022/10/13 09:05:44;;;;;;;3.9;2.7;;;;;;;18.28;57.61035;941.5783;;;;
2022/10/13 09:08:09;;;;;;;5.2;3.3;;;;;;;17.62;61.63086;941.5192;;;;
2022/10/13 09:10:34;;;;;;;5.1;2.5;;;;;;;17.89;60.05664;941.5808;;;;
2022/10/13 09:13:00;;;;;;;3.1;2.3;;;;;;;17.88;60.88965;941.5359;;;;
2022/10/13 09:15:24;;;;;;;6.5;3.1;;;;;;;17.61;64.12598;941.4707;;;;
2022/10/13 09:17:50;;;;;;;5.2;2.6;;;;;;;17.97;61.08789;941.5016;;;;
2022/10/13 09:20:22;;;;;;;5;3;;;;;;;18.3;65.19141;941.4634;;;;
2022/10/13 09:26:15;;;;;;;3.3;2.9;;;;;;;18.47;63.10059;941.3998;;;;
2022/10/13 09:28:40;;;;;;;6.1;3.1;;;;;;;18.4;64.32324;941.4442;;;;
2022/10/13 09:31:07;;;;;;;4.1;3;;;;;;;18.39;64.9834;941.4194;;;;
2022/10/13 09:33:33;;;;;;;6.3;3.2;;;;;;;18.49;64.78711;941.3842;;;;
2022/10/13 09:36:01;;;;;;;3.9;3.3;;;;;;;18.02;64.2666;941.4367;;;;
2022/10/13 09:38:31;;;;;;;6;3.1;;;;;;;17.35;67.25391;941.4325;;;;
2022/10/13 09:41:00;;;;;;;5.1;3;;;;;;;17.35;67.85742;941.3882;;;;
2022/10/13 09:43:31;;;;;;;5;2.9;;;;;;;17.67;66.51367;941.3929;;;;
2022/10/13 09:45:57;;;;;;;4.5;2.7;;;;;;;17.71;65.51074;941.4024;;;;
2022/10/13 09:53:08;;;;;;;4.6;3;;;;;;;17.55;67.88672;941.3217;;;;
2022/10/13 09:55:33;;;;;;;4.4;2.8;;;;;;;17.82;66.9541;941.3239;;;;
2022/10/13 09:57:58;;;;;;;4.8;2.7;;;;;;;18.21;64.76953;941.2526;;;;
2022/10/13 10:00:26;;;;;;;3.7;2.9;;;;;;;18.24;63.70605;941.2798;;;;
2022/10/13 10:02:51;;;;;;;4.4;3.1;;;;;;;18.3;64.56348;941.3078;;;;
2022/10/13 10:09:06;;;;;;;5.6;3.3;;;;;;;18.44;64.08496;941.3317;;;;
2022/10/13 10:11:32;;;;;;;5;3.3;;;;;;;18.38;64.58691;941.2502;;;;
2022/10/13 10:13:57;;;;;;;5.5;3.5;;;;;;;17.96;66.91699;941.1987;;;;
2022/10/13 10:16:28;;;;;;;5.8;3.7;;;;;;;18.17;66.43848;941.2233;;;;
2022/10/13 10:18:51;;;;;;;6.6;3.8;;;;;;;18.01;67.32031;941.1786;;;;
2022/10/13 10:21:16;;;;;;;6.4;3.9;;;;;;;17.77;67.91113;941.2324;;;;
2022/10/13 10:23:41;;;;;;;6.3;4;;;;;;;17.94;68.27441;941.2175;;;;
2022/10/13 10:26:11;;;;;;;7.4;3.6;;;;;;;17.96;67.01172;941.1962;;;;
2022/10/13 10:28:36;;;;;;;5.6;3.5;;;;;;;17.99;67.52637;941.1605;;;;
2022/10/13 10:31:01;;;;;;;8;4;;;;;;;18.06;67.81543;941.1686;;;;
2022/10/13 10:33:26;;;;;;;5.6;3.7;;;;;;;17.55;70;941.1517;;;;
2022/10/13 10:35:53;;;;;;;6.5;3.4;;;;;;;18.03;67.17383;941.1713;;;;
2022/10/13 10:38:21;;;;;;;5.7;3.7;;;;;;;17.95;68.90137;941.1142;;;;
2022/10/13 10:40:47;;;;;;;4.2;3.3;;;;;;;18.79;62.9248;941.1152;;;;
2022/10/13 10:43:14;;;;;;;4.7;3.2;;;;;;;19.06;61.73047;941.1254;;;;
2022/10/13 10:45:41;;;;;;;5.5;3.8;;;;;;;18.99;61.49805;941.0602;;;;
2022/10/13 10:48:08;;;;;;;6.3;3.6;;;;;;;18.68;62.61914;941.0388;;;;
2022/10/13 10:50:33;;;;;;;5.8;3.4;;;;;;;18.14;65.22656;940.9844;;;;
2022/10/13 10:52:58;;;;;;;3.8;3.2;;;;;;;17.82;66.44336;941.0199;;;;
2022/10/13 10:58:13;;;;;;;4.9;3.8;;;;;;;16.96;69.49902;940.9647;;;;
2022/10/13 11:00:39;;;;;;;6.4;3.9;;;;;;;16.88;69.34766;940.9366;;;;
2022/10/13 11:03:06;;;;;;;5;3.6;;;;;;;17.21;68.55371;940.9073;;;;
2022/10/13 11:05:32;;;;;;;4.8;3.8;;;;;;;17.03;70.06738;940.8628;;;;
2022/10/13 11:08:04;;;;;;;5.7;3.4;;;;;;;17.11;70.0332;940.8201;;;;
2022/10/13 11:10:30;;;;;;;4.2;3.7;;;;;;;17.57;70.06055;940.7964;;;;
2022/10/13 11:12:55;;;;;;;5.8;3.8;;;;;;;18.01;67.60059;940.7506;;;;
2022/10/13 11:15:20;;;;;;;4.7;3.7;;;;;;;18.37;65.20215;940.6883;;;;
2022/10/13 11:17:46;;;;;;;7;3.8;;;;;;;18.61;65.16699;940.7329;;;;
2022/10/13 11:20:13;;;;;;;4.1;3.6;;;;;;;18.3;65.92285;940.7154;;;;
2022/10/13 11:22:38;;;;;;;5.9;3.7;;;;;;;18.12;67.12793;940.7921;;;;
2022/10/13 11:25:09;;;;;;;5.6;3.9;;;;;;;18.28;65.16406;940.7761;;;;
2022/10/13 11:27:35;;;;;;;5.3;4.1;;;;;;;18.11;66.11523;940.7971;;;;
2022/10/13 11:30:00;;;;;;;5.7;4.4;;;;;;;17.93;67.64453;940.7246;;;;
2022/10/13 11:32:25;;;;;;;6.5;3.8;;;;;;;18.43;66.46582;940.6811;;;;
2022/10/13 11:34:52;;;;;;;4.6;3.5;;;;;;;18.23;65.30859;940.7261;;;;
2022/10/13 11:37:21;;;;;;;4.5;3.7;;;;;;;18.25;65.45215;940.7525;;;;
2022/10/13 11:39:49;;;;;;;6.6;4;;;;;;;18.04;65.60645;940.7876;;;;
2022/10/13 11:42:13;;;;;;;5;3.7;;;;;;;17.96;65.5;940.7838;;;;
2022/10/13 11:44:39;;;;;;;5.2;3.7;;;;;;;16.88;69.91602;940.7894;;;;
2022/10/13 11:47:04;;;;;;;5.4;4;;;;;;;16.66;71.0166;940.7733;;;;
2022/10/13 11:49:30;;;;;;;7.6;4.1;;;;;;;16.53;72.44141;940.8153;;;;
2022/10/13 11:51:56;;;;;;;5;4.4;;;;;;;16.39;72.39648;940.8179;;;;
2022/10/13 11:54:21;;;;;;;6.6;4.5;;;;;;;15.96;74.69434;940.8112;;;;
2022/10/13 11:56:46;;;;;;;6.1;4.2;;;;;;;16.1;73.37598;940.7927;;;;
2022/10/13 11:59:17;;;;;;;5.6;3.9;;;;;;;15.74;74.61133;940.7304;;;;
2022/10/13 12:01:47;;;;;;;6.7;4.3;;;;;;;15.58;76.67285;940.6962;;;;
2022/10/13 12:04:12;;;;;;;6;4.2;;;;;;;15.76;75.83789;940.6797;;;;
2022/10/13 12:06:41;;;;;;;6.3;4.4;;;;;;;15.68;76.96875;940.6834;;;;
2022/10/13 12:09:06;;;;;;;7.7;4.4;;;;;;;15.59;76.47949;940.6347;;;;
2022/10/13 12:11:31;;;;;;;6.5;3.9;;;;;;;15.76;76.34668;940.6701;;;;
2022/10/13 12:14:02;;;;;;;6.7;4.2;;;;;;;15.65;75.86719;940.6426;;;;
2022/10/13 12:16:27;;;;;;;7.1;4.5;;;;;;;15.26;78.91602;940.6295;;;;
2022/10/13 12:18:52;;;;;;;8;5;;;;;;;15.16;79.19824;940.5117;;;;
2022/10/13 12:21:23;;;;;;;6.5;4.3;;;;;;;15.21;79.17188;940.615;;;;
2022/10/13 12:23:52;;;;;;;5.8;4.6;;;;;;;15.53;78.94141;940.5336;;;;
2022/10/13 12:29:48;;;;;;;5.9;4.7;;;;;;;15.85;76.80273;940.5429;;;;
2022/10/13 12:32:14;;;;;;;5.5;3.9;;;;;;;16.03;76.55566;940.4792;;;;
2022/10/13 12:34:39;;;;;;;6.2;4.1;;;;;;;16.18;74.31543;940.4803;;;;
2022/10/13 12:37:04;;;;;;;4.9;4;;;;;;;16.4;75.69434;940.457;;;;
2022/10/13 12:39:30;;;;;;;5.3;3.9;;;;;;;16.65;73.20215;940.4598;;;;
2022/10/13 12:41:56;;;;;;;5.4;4.2;;;;;;;17.05;71.64746;940.4675;;;;
2022/10/13 12:44:21;;;;;;;5.7;3.6;;;;;;;17.17;71.41113;940.475;;;;
2022/10/13 12:46:46;;;;;;;6.5;3.8;;;;;;;17.15;70.45801;940.4937;;;;
2022/10/13 12:49:14;;;;;;;5.2;3.5;;;;;;;17.16;70.26074;940.4155;;;;
2022/10/13 12:51:40;;;;;;;7.3;3.6;;;;;;;17.42;69.17773;940.4141;;;;
2022/10/13 12:54:11;;;;;;;5.4;3.5;;;;;;;17.08;70.72461;940.3642;;;;
2022/10/13 12:56:35;;;;;;;8.1;3.8;;;;;;;17.04;71.50684;940.363;;;;
2022/10/13 12:59:02;;;;;;;8;4;;;;;;;17.32;69.46387;940.3075;;;;
2022/10/13 13:01:27;;;;;;;6.2;3.7;;;;;;;17.64;67.93652;940.2731;;;;
2022/10/13 13:03:52;;;;;;;5.7;3.8;;;;;;;17.63;68.58496;940.2838;;;;
2022/10/13 13:06:22;;;;;;;5.2;3.5;;;;;;;17.68;68.26758;940.2317;;;;
2022/10/13 13:08:51;;;;;;;6.1;3.4;;;;;;;17.49;68.72656;940.3143;;;;
2022/10/13 13:11:16;;;;;;;4.9;3.3;;;;;;;17.91;67.96875;940.2228;;;;
2022/10/13 13:13:42;;;;;;;4.7;3.3;;;;;;;18.21;65.97949;940.2167;;;;
2022/10/13 13:16:07;;;;;;;8.5;3.8;;;;;;;18.23;65.55176;940.1803;;;;
2022/10/13 13:18:38;;;;;;;3.9;3.1;;;;;;;18.1;65.33594;940.1558;;;;
2022/10/13 13:21:01;;;;;;;6.7;3.5;;;;;;;18.33;63.83496;940.1633;;;;
2022/10/13 13:23:33;;;;;;;7.1;3.3;;;;;;;18.66;63.40625;940.1462;;;;
2022/10/13 13:25:53;;;;;;;8;3.6;;;;;;;18.71;63.65723;940.1372;;;;
2022/10/13 13:28:20;;;;;;;5.1;3.6;;;;;;;19.31;61.40332;940.0759;;;;
2022/10/13 13:30:45;;;;;;;4.4;3.3;;;;;;;19.15;61.73047;940.1097;;;;
2022/10/13 13:33:12;;;;;;;5.7;3.4;;;;;;;19.18;60.78027;940.0881;;;;
2022/10/13 13:35:37;;;;;;;4.1;2.8;;;;;;;19.43;61.50098;940.0156;;;;
2022/10/13 13:38:02;;;;;;;5.3;3.2;;;;;;;19.58;61.12598;940.0585;;;;
2022/10/13 13:40:34;;;;;;;6.8;3.7;;;;;;;20.47;58.37695;940.0153;;;;
2022/10/13 13:43:01;;;;;;;4.3;3;;;;;;;20.22;58.28418;940.0363;;;;
2022/10/13 13:45:26;;;;;;;7;3.5;;;;;;;20.06;59.5127;940.0136;;;;
2022/10/13 13:47:53;;;;;;;4.7;3.1;;;;;;;19.74;59.35156;940.0019;;;;
2022/10/13 13:50:18;;;;;;;6.6;3.8;;;;;;;19.85;59.6123;939.9883;;;;
2022/10/13 13:52:45;;;;;;;6.1;3.3;;;;;;;20.03;59.04199;939.9254;;;;
2022/10/13 13:55:10;;;;;;;5.5;3.3;;;;;;;20.05;58.44922;939.9241;;;;
2022/10/13 13:57:38;;;;;;;6.9;3.1;;;;;;;19.96;58.12207;939.8977;;;;
2022/10/13 14:00:03;;;;;;;6.1;3.2;;;;;;;18.95;61.43555;939.8987;;;;
2022/10/13 14:02:33;;;;;;;7;3.9;;;;;;;18.28;64.7334;939.7983;;;;
2022/10/13 14:05:00;;;;;;;8.4;3.2;;;;;;;18.22;65.05078;939.7644;;;;
2022/10/13 14:07:25;;;;;;;7.2;3.2;;;;;;;17.87;66.69434;939.7135;;;;
2022/10/13 14:09:53;;;;;;;5.6;3.2;;;;;;;17.94;66.69531;939.7147;;;;
2022/10/13 14:12:18;;;;;;;4.4;3.1;;;;;;;17.94;68.13477;939.6495;;;;
2022/10/13 14:14:43;;;;;;;5.2;3.5;;;;;;;17.87;68.34473;939.6434;;;;
2022/10/13 14:17:13;;;;;;;4.3;3.7;;;;;;;17.71;69.39746;939.5894;;;;
2022/10/13 14:19:42;;;;;;;6.9;3.3;;;;;;;17.58;69.75;939.6085;;;;
2022/10/13 14:22:07;;;;;;;6.1;3.3;;;;;;;17.85;68.17969;939.6389;;;;
2022/10/13 14:24:33;;;;;;;4.8;3.2;;;;;;;17.85;67.86426;939.6036;;;;
2022/10/13 14:26:58;;;;;;;4.7;3.3;;;;;;;18.04;67.18457;939.6096;;;;
2022/10/13 14:29:29;;;;;;;5.4;3.3;;;;;;;18.16;66.69141;939.6195;;;;
2022/10/13 14:31:54;;;;;;;6.3;3.4;;;;;;;18.24;66.77344;939.62;;;;
2022/10/13 14:34:23;;;;;;;5.1;3.4;;;;;;;17.98;68.07129;939.5408;;;;
2022/10/13 14:36:48;;;;;;;4.9;3.4;;;;;;;18.53;66.05176;939.5963;;;;
2022/10/13 14:39:18;;;;;;;5.1;3.5;;;;;;;18.88;65.04492;939.5798;;;;
2022/10/13 14:41:47;;;;;;;5.8;3.7;;;;;;;18.91;63.98828;939.5471;;;;
2022/10/13 14:44:13;;;;;;;8.3;3.7;;;;;;;18.89;64.28906;939.5773;;;;
2022/10/13 14:46:40;;;;;;;8.2;3.6;;;;;;;18.52;65.48047;939.582;;;;
2022/10/13 14:49:05;;;;;;;9;3.9;;;;;;;18.56;64.625;939.5539;;;;
2022/10/13 14:51:30;;;;;;;7.8;4.3;;;;;;;18.45;64.69043;939.5737;;;;
2022/10/13 14:54:00;;;;;;;6.4;3.7;;;;;;;18.48;64.64844;939.5264;;;;
2022/10/13 14:56:23;;;;;;;7.1;3.7;;;;;;;18.41;64.74219;939.5829;;;;
2022/10/13 14:58:48;;;;;;;8.6;4;;;;;;;18.26;65.80078;939.5762;;;;
2022/10/13 15:01:13;;;;;;;6.2;3.8;;;;;;;17.76;68.52344;939.5411;;;;
2022/10/13 15:03:44;;;;;;;7;4;;;;;;;17.42;69.28223;939.5586;;;;
2022/10/13 15:06:12;;;;;;;7.6;4;;;;;;;17.08;71.79102;939.5917;;;;
2022/10/13 15:08:37;;;;;;;8;4.2;;;;;;;16.8;74.09668;939.6044;;;;
2022/10/13 15:11:04;;;;;;;9.1;4.1;;;;;;;16.57;74.13965;939.5937;;;;
2022/10/13 15:13:29;;;;;;;5.3;3.5;;;;;;;16.38;74.7207;939.5215;;;;
2022/10/13 15:16:03;;;;;;;6.2;3.8;;;;;;;16.37;74.86914;939.5691;;;;
2022/10/13 15:18:30;;;;;;;7.1;4.2;;;;;;;16.47;74.88477;939.598;;;;
2022/10/13 15:20:55;;;;;;;6.1;4.3;;;;;;;16.32;75.0459;939.601;;;;
2022/10/13 15:23:22;;;;;;;8.9;4.2;;;;;;;16.2;75.67188;939.5184;;;;
2022/10/13 15:25:48;;;;;;;6.8;4.1;;;;;;;16.13;75.75293;939.5865;;;;
2022/10/13 15:28:15;;;;;;;6.8;4.3;;;;;;;16.19;75.51953;939.5787;;;;
2022/10/13 15:30:40;;;;;;;6.2;4.2;;;;;;;16.25;75.50781;939.584;;;;
2022/10/13 15:33:08;;;;;;;6.2;4.2;;;;;;;16.31;75.33301;939.6108;;;;
2022/10/13 15:35:34;;;;;;;6;4.1;;;;;;;16.35;75.87207;939.5781;;;;
2022/10/13 15:38:02;;;;;;;11.4;4.8;;;;;;;16.32;75.05664;939.6316;;;;
2022/10/13 15:40:27;;;;;;;7.7;4.7;;;;;;;16.07;75.19922;939.6217;;;;
2022/10/13 15:42:52;;;;;;;9.5;4.7;;;;;;;16.14;75.7666;939.6339;;;;
2022/10/13 15:45:18;;;;;;;6.1;4.9;;;;;;;16.24;75.15918;939.5681;;;;
2022/10/13 15:47:45;;;;;;;7.8;5;;;;;;;16.3;75.00781;939.5659;;;;
2022/10/13 15:50:10;;;;;;;9.3;5;;;;;;;16.3;74.78613;939.5248;;;;
2022/10/13 15:52:35;;;;;;;6.4;4.5;;;;;;;16.34;74.68945;939.5678;;;;
2022/10/13 15:55:01;;;;;;;8.9;4.9;;;;;;;16.35;74.50586;939.5621;;;;
2022/10/13 15:57:26;;;;;;;12.5;5.3;;;;;;;16.34;74.72461;939.5349;;;;
2022/10/13 15:59:53;;;;;;;10.5;4.5;;;;;;;16.32;74.60547;939.5792;;;;
2022/10/13 16:02:18;;;;;;;8;4.4;;;;;;;16.34;74.66699;939.6795;;;;
2022/10/13 16:04:45;;;;;;;6.1;4.3;;;;;;;16.33;74.93164;939.5815;;;;
2022/10/13 16:07:09;;;;;;;8.2;4.7;;;;;;;16.31;75.08984;939.6598;;;;
2022/10/13 16:09:39;;;;;;;7;4.3;;;;;;;16.18;75.50684;939.6407;;;;
2022/10/13 16:12:04;;;;;;;5.7;4.2;;;;;;;16.19;75.63574;939.6944;;;;